Time;durP1;ratioP1;P1;durP2;ratioP2;P2;SDS_P1;SDS_P2;PMS_P1;PMS_P2;Temp;Humidity;BMP_temperature;BMP_pressure;BME280_temperature;BME280_humidity;BME280_pressure;Samples;Min_cycle;Max_cycle;Signal;HPM_P1;HPM_P2
2022/09/28 00:01:55;;;;;;;16.00;11.82;;;;;;;-148.88;100.00;74847.03;5038127;28;20036;-83
2022/09/28 00:04:20;;;;;;;11.60;6.25;;;;;;;-148.88;100.00;74847.03;5040506;28;20032;-82
2022/09/28 00:06:47;;;;;;;10.80;5.63;;;;;;;-148.88;100.00;74836.88;5041467;28;20049;-82
2022/09/28 00:09:13;;;;;;;12.23;6.30;;;;;;;-148.88;100.00;74838.91;5044166;28;20045;-84
2022/09/28 00:11:39;;;;;;;17.92;12.23;;;;;;;-148.88;100.00;74842.97;5051937;28;20017;-84
2022/09/28 00:14:06;;;;;;;15.05;12.13;;;;;;;-148.88;100.00;74836.88;5051478;28;20441;-84
2022/09/28 00:16:39;;;;;;;12.27;7.28;;;;;;;-148.88;100.00;74838.91;5046730;28;20038;-84
2022/09/28 00:19:05;;;;;;;11.93;6.00;;;;;;;-148.88;100.00;74842.97;5045376;28;20108;-84
2022/09/28 00:21:32;;;;;;;12.60;6.25;;;;;;;-148.88;100.00;74845.00;5043555;28;20049;-84
2022/09/28 00:24:12;;;;;;;8.45;5.40;;;;;;;-148.88;100.00;74853.13;5043211;28;20029;-84
2022/09/28 00:26:40;;;;;;;9.93;5.00;;;;;;;-148.88;100.00;74857.19;5043460;28;20083;-84
2022/09/28 00:29:07;;;;;;;8.63;4.60;;;;;;;-148.88;100.00;74849.06;5044751;28;20407;-84
2022/09/28 00:31:33;;;;;;;8.95;5.82;;;;;;;-148.88;100.00;74863.28;5042788;28;20018;-83
2022/09/28 00:34:00;;;;;;;4.95;2.55;;;;;;;-148.88;100.00;74869.38;5043818;28;20097;-83
2022/09/28 00:36:28;;;;;;;4.13;2.22;;;;;;;-148.88;100.00;74871.41;5040157;28;20548;-82
2022/09/28 00:38:55;;;;;;;4.35;2.38;;;;;;;-148.88;100.00;74875.47;5038137;28;20033;-80
2022/09/28 00:41:21;;;;;;;3.15;1.80;;;;;;;-148.88;100.00;74873.44;5039210;28;20503;-82
2022/09/28 00:43:47;;;;;;;3.85;1.60;;;;;;;-148.88;100.00;74873.44;5039053;28;20025;-83
2022/09/28 00:46:20;;;;;;;2.42;1.45;;;;;;;-148.88;100.00;74881.56;5040312;28;20503;-83
2022/09/28 00:48:53;;;;;;;4.22;2.38;;;;;;;-148.88;100.00;74873.44;5040543;28;20048;-83
2022/09/28 00:51:20;;;;;;;7.20;2.00;;;;;;;-148.88;100.00;74871.41;5041520;28;20036;-83
2022/09/28 00:53:46;;;;;;;3.50;1.98;;;;;;;-148.88;100.00;74881.56;5041142;28;20026;-82
2022/09/28 00:56:17;;;;;;;5.45;2.20;;;;;;;-148.88;100.00;74877.50;5041521;28;20022;-83
2022/09/28 00:58:46;;;;;;;4.90;3.75;;;;;;;-148.88;100.00;74875.47;5042841;28;20450;-83
2022/09/28 01:01:12;;;;;;;4.05;2.30;;;;;;;-148.88;100.00;74871.41;5041106;28;20498;-83
2022/09/28 01:03:44;;;;;;;7.15;4.22;;;;;;;-148.88;100.00;74865.31;5040926;28;20053;-83
2022/09/28 01:06:12;;;;;;;4.03;2.17;;;;;;;-148.88;100.00;74859.22;5042128;28;20025;-84
2022/09/28 01:08:38;;;;;;;4.25;2.17;;;;;;;-148.88;100.00;74851.09;5042280;28;20017;-82
2022/09/28 01:11:04;;;;;;;3.35;2.08;;;;;;;-148.88;100.00;74842.97;5040782;28;20028;-82
2022/09/28 01:13:31;;;;;;;4.40;3.97;;;;;;;-148.88;100.00;74842.97;5035165;28;20025;-82
2022/09/28 01:16:20;;;;;;;4.50;2.55;;;;;;;-148.88;100.00;74834.84;5036399;28;20514;-82
2022/09/28 01:19:21;;;;;;;3.58;2.55;;;;;;;-148.88;100.00;74838.91;5037677;28;20029;-82
2022/09/28 01:21:52;;;;;;;4.28;2.28;;;;;;;-148.88;100.00;74834.84;5040702;28;20017;-82
2022/09/28 01:24:29;;;;;;;3.40;2.08;;;;;;;-148.88;100.00;74838.91;5041219;28;20113;-83
2022/09/28 01:27:25;;;;;;;3.05;1.83;;;;;;;-148.88;100.00;74834.84;5040291;28;20392;-81
2022/09/28 01:30:07;;;;;;;4.43;2.00;;;;;;;-148.88;100.00;74834.84;5042249;28;20033;-82
2022/09/28 01:32:48;;;;;;;3.50;2.08;;;;;;;-148.88;100.00;74830.78;5040371;28;20498;-83
2022/09/28 01:35:19;;;;;;;4.85;2.17;;;;;;;-148.88;100.00;74828.75;5040539;28;20030;-83
2022/09/28 01:37:53;;;;;;;5.88;4.32;;;;;;;-148.88;100.00;74826.72;5040194;28;20411;-83
2022/09/28 01:40:20;;;;;;;;;;;;;;;-148.88;100.00;74822.66;5045189;28;20041;-81
2022/09/28 01:42:49;;;;;;;4.93;2.78;;;;;;;-148.88;100.00;74816.56;5052282;28;20398;-82
2022/09/28 01:45:25;;;;;;;4.90;2.80;;;;;;;-148.88;100.00;74810.50;5051149;28;20087;-83
2022/09/28 01:47:55;;;;;;;5.38;3.00;;;;;;;-148.88;100.00;74806.44;5038471;28;20121;-82
2022/09/28 01:50:24;;;;;;;6.63;2.97;;;;;;;-148.88;100.00;74810.50;5037885;28;20029;-81
2022/09/28 01:53:21;;;;;;;8.95;5.72;;;;;;;-148.88;100.00;74800.34;5043741;28;20044;-82
2022/09/28 01:55:53;;;;;;;8.95;6.38;;;;;;;-148.88;100.00;74802.38;5044430;28;20492;-84
2022/09/28 01:58:43;;;;;;;6.25;3.60;;;;;;;-148.88;100.00;74794.25;5045569;28;20432;-83
2022/09/28 02:01:17;;;;;;;6.53;3.88;;;;;;;-148.88;100.00;74790.19;5045242;28;20025;-84
2022/09/28 02:03:51;;;;;;;6.97;4.10;;;;;;;-148.88;100.00;74786.13;5047187;28;20022;-84
2022/09/28 02:06:35;;;;;;;6.75;3.80;;;;;;;-148.88;100.00;74786.13;5048060;28;20029;-84
2022/09/28 02:09:09;;;;;;;7.50;4.10;;;;;;;-148.88;100.00;74788.16;5046422;28;20049;-84
2022/09/28 02:11:38;;;;;;;8.65;7.05;;;;;;;-148.88;100.00;74782.06;5046486;28;20026;-82
2022/09/28 02:14:08;;;;;;;7.50;3.97;;;;;;;-148.88;100.00;74778.00;5044978;28;20549;-84
2022/09/28 02:16:41;;;;;;;7.00;3.58;;;;;;;-148.88;100.00;74775.97;5044269;28;20124;-84
2022/09/28 02:19:10;;;;;;;6.27;3.47;;;;;;;-148.88;100.00;74775.97;5044623;28;20029;-83
2022/09/28 02:22:07;;;;;;;8.88;6.28;;;;;;;-148.88;100.00;74773.94;5042338;28;20017;-83
2022/09/28 02:24:47;;;;;;;5.70;3.45;;;;;;;-148.88;100.00;74773.94;5036268;28;20434;-84
2022/09/28 02:27:24;;;;;;;9.82;6.78;;;;;;;-148.88;100.00;74773.94;5036713;28;20017;-83
2022/09/28 02:29:50;;;;;;;8.73;3.47;;;;;;;-148.88;100.00;74773.94;5039175;28;20060;-83
2022/09/28 02:32:18;;;;;;;6.53;3.08;;;;;;;-148.88;100.00;74778.00;5041897;28;20022;-84
2022/09/28 02:34:43;;;;;;;7.85;3.67;;;;;;;-148.88;100.00;74773.94;5040567;28;20137;-81
2022/09/28 02:37:09;;;;;;;6.05;3.65;;;;;;;-148.88;100.00;74782.06;5042616;28;20120;-83
2022/09/28 02:39:34;;;;;;;6.80;5.60;;;;;;;-148.88;100.00;74782.06;5043391;28;20512;-83
2022/09/28 02:42:11;;;;;;;7.80;6.10;;;;;;;-148.88;100.00;74786.13;5041987;28;20396;-83
2022/09/28 02:44:53;;;;;;;5.22;3.03;;;;;;;-148.88;100.00;74784.09;5042936;28;20025;-83
2022/09/28 02:47:52;;;;;;;5.50;2.88;;;;;;;-148.88;100.00;74788.16;5044101;28;20571;-82
2022/09/28 02:50:45;;;;;;;8.10;6.35;;;;;;;-148.88;100.00;74784.09;5042849;28;20035;-82
2022/09/28 02:53:44;;;;;;;5.40;3.03;;;;;;;-148.88;100.00;74790.19;5044589;28;20049;-82
2022/09/28 02:56:19;;;;;;;6.78;3.30;;;;;;;-148.88;100.00;74792.22;5042332;28;20052;-84
2022/09/28 02:59:23;;;;;;;7.97;5.97;;;;;;;-148.88;100.00;74790.19;5036980;28;20029;-82
2022/09/28 03:02:05;;;;;;;8.38;6.40;;;;;;;-148.88;100.00;74782.06;5055412;28;20021;-83
2022/09/28 03:04:41;;;;;;;8.13;4.10;;;;;;;-148.88;100.00;74786.13;5041677;28;20025;-83
2022/09/28 03:07:19;;;;;;;5.65;3.42;;;;;;;-148.88;100.00;74786.13;5042151;28;20101;-82
2022/09/28 03:10:15;;;;;;;7.05;3.33;;;;;;;-148.88;100.00;74782.06;5048049;28;20057;-82
2022/09/28 03:12:44;;;;;;;6.85;3.67;;;;;;;-148.88;100.00;74794.25;5048401;28;20029;-82
2022/09/28 03:15:31;;;;;;;11.02;7.05;;;;;;;-148.88;100.00;74788.16;5048814;28;20030;-83
2022/09/28 03:17:57;;;;;;;9.35;7.10;;;;;;;-148.88;100.00;74790.19;5047973;28;20106;-83
2022/09/28 03:20:23;;;;;;;8.40;7.00;;;;;;;-148.88;100.00;74786.13;5049103;28;20029;-83
2022/09/28 03:22:48;;;;;;;10.55;7.43;;;;;;;-148.88;100.00;74784.09;5046587;28;20022;-82
2022/09/28 03:25:17;;;;;;;6.93;3.55;;;;;;;-148.88;100.00;74782.06;5046652;28;20026;-83
2022/09/28 03:27:46;;;;;;;7.05;3.85;;;;;;;-148.88;100.00;74782.06;5047113;28;20021;-83
2022/09/28 03:30:12;;;;;;;10.10;7.55;;;;;;;-148.88;100.00;74782.06;5046306;28;20026;-83
2022/09/28 03:32:37;;;;;;;11.27;7.80;;;;;;;-148.88;100.00;74782.06;5048130;28;20036;-83
2022/09/28 03:35:05;;;;;;;8.40;7.25;;;;;;;-148.88;100.00;74784.09;5041279;28;20025;-82
2022/09/28 03:37:30;;;;;;;8.43;4.05;;;;;;;-148.88;100.00;74788.16;5042159;28;20025;-83
2022/09/28 03:39:56;;;;;;;9.35;7.10;;;;;;;-148.88;100.00;74786.13;5042034;28;20068;-84
2022/09/28 03:42:21;;;;;;;6.97;4.57;;;;;;;-148.88;100.00;74786.13;5043472;28;20037;-83
2022/09/28 03:44:46;;;;;;;7.10;4.30;;;;;;;-148.88;100.00;74786.13;5046928;28;20021;-83
2022/09/28 03:47:12;;;;;;;7.05;3.97;;;;;;;-148.88;100.00;74782.06;5050265;28;20084;-83
2022/09/28 03:49:38;;;;;;;8.05;4.53;;;;;;;-148.88;100.00;74782.06;5049240;28;20051;-81
2022/09/28 03:52:04;;;;;;;9.55;7.82;;;;;;;-148.88;100.00;74780.03;5045785;28;20446;-82
2022/09/28 03:54:29;;;;;;;10.55;8.18;;;;;;;-148.88;100.00;74782.06;5049923;28;20038;-81
2022/09/28 03:56:55;;;;;;;11.65;9.20;;;;;;;-148.88;100.00;74790.19;5046777;28;20583;-82
2022/09/28 03:59:20;;;;;;;9.18;5.18;;;;;;;-148.88;100.00;74786.13;5046037;28;20036;-81
2022/09/28 04:01:48;;;;;;;9.88;5.35;;;;;;;-148.88;100.00;74794.25;5044874;28;20052;-81
2022/09/28 04:04:13;;;;;;;9.18;5.28;;;;;;;-148.88;100.00;74786.13;5046317;28;20025;-81
2022/09/28 04:06:39;;;;;;;10.80;5.20;;;;;;;-148.88;100.00;74786.13;5045035;28;20484;-81
2022/09/28 04:09:04;;;;;;;11.80;6.38;;;;;;;-148.88;100.00;74790.19;5044592;28;20037;-81
2022/09/28 04:11:29;;;;;;;14.60;11.48;;;;;;;-148.88;100.00;74790.19;5040139;28;20029;-82
2022/09/28 04:13:55;;;;;;;11.05;6.20;;;;;;;-148.88;100.00;74802.38;5041625;28;20033;-83
2022/09/28 04:16:20;;;;;;;15.23;6.95;;;;;;;-148.88;100.00;74810.50;5041441;28;20026;-81
2022/09/28 04:18:47;;;;;;;11.80;7.07;;;;;;;-148.88;100.00;74806.44;5042008;28;20025;-81
2022/09/28 04:21:15;;;;;;;21.38;14.55;;;;;;;-148.88;100.00;74802.38;5045145;28;20085;-83
2022/09/28 04:23:41;;;;;;;15.68;8.25;;;;;;;-148.88;100.00;74806.44;5045379;28;20029;-82
2022/09/28 04:26:21;;;;;;;16.05;8.45;;;;;;;-148.88;100.00;74802.38;5046389;28;20450;-86
2022/09/28 04:31:52;;;;;;;16.02;7.97;;;;;;;-148.88;100.00;74794.25;5048188;28;20554;-82
2022/09/28 04:34:20;;;;;;;15.02;7.93;;;;;;;-148.88;100.00;74780.03;5046280;28;20033;-83
2022/09/28 04:36:46;;;;;;;18.30;8.90;;;;;;;-148.88;100.00;74784.09;5046364;28;20021;-80
2022/09/28 04:39:13;;;;;;;15.88;8.82;;;;;;;-148.88;100.00;74790.19;5046919;28;20021;-81
2022/09/28 04:41:42;;;;;;;18.75;8.75;;;;;;;-148.88;100.00;74790.19;5048362;28;20025;-82
2022/09/28 04:44:08;;;;;;;22.48;16.48;;;;;;;-148.88;100.00;74792.22;5048632;28;20021;-81
2022/09/28 04:46:34;;;;;;;15.73;8.73;;;;;;;-148.88;100.00;74804.41;5044903;28;20018;-82
2022/09/28 04:48:59;;;;;;;16.08;7.88;;;;;;;-148.88;100.00;74800.34;5049998;28;20048;-82
2022/09/28 04:51:29;;;;;;;17.05;8.07;;;;;;;-148.88;100.00;74806.44;5047875;28;20111;-82
2022/09/28 04:53:54;;;;;;;15.25;8.15;;;;;;;-148.88;100.00;74814.53;5048293;28;20049;-83
2022/09/28 04:56:19;;;;;;;18.75;7.97;;;;;;;-148.88;100.00;74822.66;5046360;28;20133;-83
2022/09/28 04:58:44;;;;;;;15.98;8.10;;;;;;;-148.88;100.00;74830.78;5047194;28;20022;-82
2022/09/28 05:01:13;;;;;;;15.85;8.10;;;;;;;-148.88;100.00;74824.69;5044678;28;20033;-82
2022/09/28 05:03:38;;;;;;;16.15;7.75;;;;;;;-148.88;100.00;74838.91;5046665;28;20041;-83
2022/09/28 05:06:05;;;;;;;14.75;7.65;;;;;;;-148.88;100.00;74834.84;5046485;28;20029;-83
2022/09/28 05:08:37;;;;;;;20.58;14.05;;;;;;;-148.88;100.00;74836.88;5047761;28;20029;-83
2022/09/28 05:11:05;;;;;;;15.48;8.23;;;;;;;-148.88;100.00;74838.91;5050143;28;20353;-84
2022/09/28 05:13:34;;;;;;;16.50;7.80;;;;;;;-148.88;100.00;74842.97;5048972;28;20021;-83
2022/09/28 05:16:00;;;;;;;16.25;7.60;;;;;;;-148.88;100.00;74838.91;5046601;28;20040;-85
2022/09/28 05:18:25;;;;;;;15.90;7.82;;;;;;;-148.88;100.00;74847.03;5045480;28;20415;-84
2022/09/28 05:20:52;;;;;;;13.57;7.68;;;;;;;-148.88;100.00;74847.03;5045619;28;20075;-83
2022/09/28 05:23:18;;;;;;;19.15;14.05;;;;;;;-148.88;100.00;74847.03;5036896;28;20072;-86
2022/09/28 05:25:44;;;;;;;14.35;7.38;;;;;;;-148.88;100.00;74851.09;5052675;28;20428;-84
2022/09/28 05:28:10;;;;;;;20.38;14.05;;;;;;;-148.88;100.00;74851.09;5039890;28;20109;-86
2022/09/28 05:30:36;;;;;;;15.65;6.57;;;;;;;-148.88;100.00;74849.06;5039751;28;20128;-85
2022/09/28 05:33:02;;;;;;;14.93;7.55;;;;;;;-148.88;100.00;74857.19;5042550;28;20023;-83
2022/09/28 05:35:29;;;;;;;16.13;7.50;;;;;;;-148.88;100.00;74847.03;5043585;28;20039;-84
2022/09/28 05:37:55;;;;;;;16.30;7.93;;;;;;;-148.88;100.00;74851.09;5045662;28;20033;-83
2022/09/28 05:40:21;;;;;;;23.58;9.20;;;;;;;-148.88;100.00;74859.22;5044149;28;20029;-84
2022/09/28 05:42:46;;;;;;;17.95;8.55;;;;;;;-148.88;100.00;74857.19;5042521;28;20105;-84
2022/09/28 05:45:14;;;;;;;19.27;9.27;;;;;;;-148.88;100.00;74861.25;5041295;28;20021;-84
2022/09/28 05:47:41;;;;;;;19.58;9.32;;;;;;;-148.88;100.00;74869.38;5043764;28;20044;-84
2022/09/28 05:50:10;;;;;;;19.30;9.73;;;;;;;-148.88;100.00;74863.28;5043922;28;20022;-84
2022/09/28 05:52:36;;;;;;;23.08;10.20;;;;;;;-148.88;100.00;74859.22;5041404;28;20376;-84
2022/09/28 05:55:02;;;;;;;21.67;10.48;;;;;;;-148.88;100.00;74863.28;5040390;28;20511;-85
2022/09/28 05:57:27;;;;;;;22.95;10.27;;;;;;;-148.88;100.00;74863.28;5039277;28;20515;-84
2022/09/28 05:59:52;;;;;;;21.83;10.68;;;;;;;-148.88;100.00;74865.31;5035726;28;20112;-84
2022/09/28 06:02:17;;;;;;;20.35;10.27;;;;;;;-148.88;100.00;74859.22;5036742;28;20032;-85
2022/09/28 06:04:43;;;;;;;26.67;12.43;;;;;;;-148.88;100.00;74855.16;5038568;28;20033;-84
2022/09/28 06:07:08;;;;;;;30.77;21.00;;;;;;;-148.88;100.00;74859.22;5039346;28;20438;-85
2022/09/28 06:09:33;;;;;;;22.85;11.10;;;;;;;-148.88;100.00;74861.25;5040019;28;20183;-85
2022/09/28 06:11:59;;;;;;;22.35;11.13;;;;;;;-148.88;100.00;74851.09;5041082;28;20021;-85
2022/09/28 06:14:24;;;;;;;27.10;11.65;;;;;;;-148.88;100.00;74845.00;5040480;28;20025;-85
2022/09/28 06:16:50;;;;;;;23.30;11.15;;;;;;;-148.88;100.00;74847.03;5040337;28;20033;-85
2022/09/28 06:19:15;;;;;;;25.73;12.00;;;;;;;-148.88;100.00;74847.03;5042035;28;20049;-86
2022/09/28 06:21:41;;;;;;;22.60;11.18;;;;;;;-148.88;100.00;74859.22;5043504;28;20036;-86
2022/09/28 06:24:06;;;;;;;22.80;11.23;;;;;;;-148.88;100.00;74853.13;5042434;28;20025;-86
2022/09/28 06:26:32;;;;;;;23.17;10.73;;;;;;;-148.88;100.00;74851.09;5042206;28;20109;-86
2022/09/28 06:28:59;;;;;;;25.05;11.55;;;;;;;-148.88;100.00;74847.03;5041678;28;20037;-86
2022/09/28 06:31:25;;;;;;;22.58;11.50;;;;;;;-148.88;100.00;74842.97;5058367;28;20091;-85
2022/09/28 06:33:54;;;;;;;22.92;11.38;;;;;;;-148.88;100.00;74836.88;5036507;28;20033;-85
2022/09/28 06:36:19;;;;;;;33.95;22.13;;;;;;;-148.88;100.00;74826.72;5036530;28;20026;-86
2022/09/28 06:38:45;;;;;;;33.53;22.67;;;;;;;-148.88;100.00;74830.78;5054200;28;20159;-85
2022/09/28 06:41:11;;;;;;;24.60;11.40;;;;;;;-148.88;100.00;74830.78;5038340;28;20410;-85
2022/09/28 06:43:39;;;;;;;24.00;12.85;;;;;;;-148.88;100.00;74830.78;5038244;28;20450;-85
2022/09/28 06:46:07;;;;;;;24.77;13.02;;;;;;;-148.88;100.00;74834.84;5041437;28;20045;-84
2022/09/28 06:48:36;;;;;;;20.63;10.30;;;;;;;-148.88;100.00;74824.69;5042453;28;20116;-84
2022/09/28 06:51:02;;;;;;;31.27;21.02;;;;;;;-148.88;100.00;74830.78;5040513;28;20025;-85
2022/09/28 06:53:28;;;;;;;29.75;20.80;;;;;;;-148.88;100.00;74822.66;5042105;28;20025;-86
2022/09/28 06:55:54;;;;;;;24.25;12.40;;;;;;;-148.88;100.00;74822.66;5040873;28;20025;-86
2022/09/28 06:58:27;;;;;;;22.77;10.73;;;;;;;-148.88;100.00;74826.72;5041271;28;20029;-85
2022/09/28 07:00:58;;;;;;;27.30;12.60;;;;;;;-148.88;100.00;74814.53;5042556;28;20033;-85
2022/09/28 07:03:23;;;;;;;24.67;12.07;;;;;;;-148.88;100.00;74810.50;5043120;28;20025;-85
2022/09/28 07:05:52;;;;;;;24.00;11.15;;;;;;;-148.88;100.00;74812.53;5048143;28;20035;-85
2022/09/28 07:08:27;;;;;;;31.67;13.18;;;;;;;-148.88;100.00;74794.25;5041586;28;20029;-86
2022/09/28 07:10:56;;;;;;;37.72;23.80;;;;;;;-148.88;100.00;74802.38;5037085;28;20085;-85
2022/09/28 07:13:31;;;;;;;25.73;12.50;;;;;;;-148.88;100.00;74800.34;5038336;28;20038;-87
2022/09/28 07:16:02;;;;;;;35.15;23.98;;;;;;;-148.88;100.00;74790.19;5040682;28;20036;-86
2022/09/28 07:18:30;;;;;;;33.75;14.65;;;;;;;-148.88;100.00;74798.31;5043930;28;20075;-86
2022/09/28 07:20:56;;;;;;;29.88;13.60;;;;;;;-148.88;100.00;74798.31;5043921;28;20022;-87
2022/09/28 07:23:22;;;;;;;38.75;25.27;;;;;;;-148.88;100.00;74794.25;5049100;28;20440;-86
2022/09/28 07:25:48;;;;;;;31.00;14.02;;;;;;;-148.88;100.00;74790.19;5034860;28;20044;-86
2022/09/28 07:28:16;;;;;;;29.92;13.88;;;;;;;-148.88;100.00;74788.16;5037865;28;20449;-86
2022/09/28 07:30:43;;;;;;;29.42;14.15;;;;;;;-148.88;100.00;74782.06;5035712;28;20025;-86
2022/09/28 07:33:15;;;;;;;37.03;24.42;;;;;;;-148.88;100.00;74788.16;5034954;28;20030;-86
2022/09/28 07:35:49;;;;;;;26.67;12.82;;;;;;;-148.88;100.00;74790.19;5034994;28;20038;-86
2022/09/28 07:38:15;;;;;;;39.95;25.38;;;;;;;-148.88;100.00;74794.25;5034729;28;20029;-86
2022/09/28 07:43:24;;;;;;;;;;;;;;;-148.88;100.00;74790.19;5036741;28;20071;-85
2022/09/28 07:45:54;;;;;;;32.72;14.32;;;;;;;-148.88;100.00;74792.22;5033599;28;19909;-85
2022/09/28 07:48:20;;;;;;;28.83;14.75;;;;;;;-148.88;100.00;74788.16;5035000;28;20018;-86
2022/09/28 07:50:58;;;;;;;33.78;15.55;;;;;;;-148.88;100.00;74769.88;5033585;28;20545;-85
2022/09/28 07:53:24;;;;;;;29.45;14.63;;;;;;;-148.88;100.00;74741.44;5034254;28;20021;-85
2022/09/28 07:55:55;;;;;;;38.25;16.35;;;;;;;-148.88;100.00;74727.22;5037497;28;20060;-85
2022/09/28 07:58:21;;;;;;;44.15;28.30;;;;;;;-148.88;100.00;74706.91;5037583;28;20044;-86
2022/09/28 08:00:48;;;;;;;35.40;15.13;;;;;;;-148.88;100.00;74721.13;5054453;28;20463;-85
2022/09/28 08:03:18;;;;;;;35.25;24.42;;;;;;;-148.88;100.00;74721.13;5037772;28;20027;-85
2022/09/28 08:05:45;;;;;;;32.53;23.52;;;;;;;-148.88;100.00;74741.44;5037953;28;20025;-85
2022/09/28 08:08:14;;;;;;;29.17;13.93;;;;;;;-148.88;100.00;74735.34;5038653;28;20447;-86
2022/09/28 08:10:43;;;;;;;33.28;23.15;;;;;;;-148.88;100.00;74737.38;5037795;28;20052;-84
2022/09/28 08:13:09;;;;;;;31.88;22.50;;;;;;;-148.88;100.00;74706.91;5037952;28;20021;-85
2022/09/28 08:15:41;;;;;;;30.17;21.80;;;;;;;-148.88;100.00;74731.28;5037915;28;20415;-86
2022/09/28 08:18:06;;;;;;;30.05;21.13;;;;;;;-148.88;100.00;74713.00;5069080;23;20045;-88
2022/09/28 08:23:16;;;;;;;27.20;19.05;;;;;;;-148.88;100.00;74731.28;5055372;28;20112;-86
2022/09/28 08:25:47;;;;;;;22.63;10.82;;;;;;;-148.88;100.00;74729.25;5053774;28;20052;-85
2022/09/28 08:28:14;;;;;;;24.73;18.27;;;;;;;-148.88;100.00;74749.56;5053427;28;20025;-88
2022/09/28 08:30:40;;;;;;;26.98;19.02;;;;;;;-148.88;100.00;74739.41;5053530;28;20099;-87
2022/09/28 08:33:06;;;;;;;23.88;10.90;;;;;;;-148.88;100.00;74725.19;5044102;28;20109;-87
2022/09/28 08:35:31;;;;;;;25.05;19.08;;;;;;;-148.88;100.00;74721.13;5054309;28;20028;-88
2022/09/28 08:37:57;;;;;;;22.88;10.82;;;;;;;-148.88;100.00;74737.38;5053459;28;20020;-88
2022/09/28 08:40:24;;;;;;;23.45;17.73;;;;;;;-148.88;100.00;74749.56;5053671;28;20395;-89
2022/09/28 08:43:03;;;;;;;25.20;11.50;;;;;;;-148.88;100.00;74757.69;5054740;28;20087;-87
2022/09/28 08:45:35;;;;;;;18.17;9.93;;;;;;;-148.88;100.00;74743.47;5053175;28;20035;-88
2022/09/28 08:51:00;;;;;;;19.63;10.38;;;;;;;-148.88;100.00;74745.50;5054455;28;20039;-85
2022/09/28 08:53:41;;;;;;;20.85;9.93;;;;;;;-148.88;100.00;74761.75;5054557;28;20021;-87
2022/09/28 08:56:13;;;;;;;22.55;16.67;;;;;;;-148.88;100.00;74765.81;5054458;28;20454;-87
2022/09/28 08:58:45;;;;;;;18.30;9.70;;;;;;;-148.88;100.00;74747.53;5050761;28;20032;-88
2022/09/28 09:01:17;;;;;;;15.70;8.75;;;;;;;-148.88;100.00;74749.56;5033247;28;20507;-87
2022/09/28 09:03:46;;;;;;;15.30;7.15;;;;;;;-148.88;100.00;74775.97;5033414;28;20413;-87
2022/09/28 09:06:35;;;;;;;16.65;8.10;;;;;;;-148.88;100.00;74769.88;5037944;28;20021;-87
2022/09/28 09:09:15;;;;;;;13.48;6.32;;;;;;;-148.88;100.00;74780.03;5054136;28;20507;-87
2022/09/28 09:11:43;;;;;;;11.20;6.25;;;;;;;-148.88;100.00;74798.31;5054707;28;20033;-87
2022/09/28 09:14:43;;;;;;;11.60;6.10;;;;;;;-148.88;100.00;74834.84;5054659;28;20032;-86
2022/09/28 09:17:17;;;;;;;10.27;5.85;;;;;;;-148.88;100.00;74832.81;5054872;28;20037;-86
2022/09/28 09:20:16;;;;;;;11.93;9.52;;;;;;;-148.88;100.00;74851.09;5052849;28;20025;-85
2022/09/28 09:22:58;;;;;;;10.45;5.72;;;;;;;-148.88;100.00;74842.97;5052834;28;20017;-85
2022/09/28 09:26:14;;;;;;;10.50;5.50;;;;;;;-148.88;100.00;74836.88;5054514;28;20029;-87
2022/09/28 09:29:00;;;;;;;10.43;5.38;;;;;;;-148.88;100.00;74842.97;5035296;28;20495;-87
2022/09/28 09:31:41;;;;;;;13.40;10.00;;;;;;;-148.88;100.00;74830.78;5035191;28;20037;-87
2022/09/28 09:34:38;;;;;;;15.88;11.25;;;;;;;-148.88;100.00;74834.84;5053321;28;20067;-82
2022/09/28 09:37:46;;;;;;;13.75;6.32;;;;;;;-148.88;100.00;74824.69;5052329;28;20033;-84
2022/09/28 09:40:29;;;;;;;15.50;10.48;;;;;;;-148.88;100.00;74828.75;5053713;28;20024;-84
2022/09/28 09:43:31;;;;;;;14.77;10.63;;;;;;;-148.88;100.00;74838.91;5053143;28;20017;-83
2022/09/28 09:46:02;;;;;;;11.15;6.20;;;;;;;-148.88;100.00;74830.78;5052214;28;20025;-84
2022/09/28 09:48:35;;;;;;;14.40;10.98;;;;;;;-148.88;100.00;74810.50;5052727;28;20074;-85
2022/09/28 09:51:12;;;;;;;13.88;5.60;;;;;;;-148.88;100.00;74810.50;5052417;28;20040;-85
2022/09/28 09:53:44;;;;;;;11.32;8.27;;;;;;;-148.88;100.00;74808.47;5052147;28;20029;-85
2022/09/28 09:56:18;;;;;;;10.13;7.10;;;;;;;-148.88;100.00;74810.50;5051938;28;20025;-87
2022/09/28 09:58:50;;;;;;;8.25;6.35;;;;;;;-148.88;100.00;74798.31;5052248;28;20025;-88
2022/09/28 10:01:26;;;;;;;9.07;6.35;;;;;;;-148.88;100.00;74802.38;5053278;28;20025;-87
2022/09/28 10:03:52;;;;;;;7.15;5.47;;;;;;;-148.88;100.00;74796.28;5053401;28;20024;-87
2022/09/28 10:06:26;;;;;;;6.95;5.72;;;;;;;-148.88;100.00;74804.41;5051811;28;20029;-87
2022/09/28 10:09:00;;;;;;;7.40;5.72;;;;;;;-148.88;100.00;74800.34;5051785;28;20036;-87
2022/09/28 10:11:41;;;;;;;9.00;6.28;;;;;;;-148.88;100.00;74802.38;5053213;28;20079;-87
2022/09/28 10:14:14;;;;;;;8.25;6.30;;;;;;;-148.88;100.00;74786.13;5053038;28;20035;-87
2022/09/28 10:16:40;;;;;;;6.57;3.80;;;;;;;-148.88;100.00;74794.25;5054000;28;20078;-85
2022/09/28 10:19:09;;;;;;;9.40;5.97;;;;;;;-148.88;100.00;74822.66;5053509;28;20061;-87
2022/09/28 10:21:39;;;;;;;10.80;7.15;;;;;;;-148.88;100.00;74834.84;5053045;28;20506;-87
2022/09/28 10:24:06;;;;;;;10.52;4.50;;;;;;;-148.88;100.00;74824.69;5052840;28;20487;-87
2022/09/28 10:26:37;;;;;;;10.77;8.07;;;;;;;-148.88;100.00;74816.56;5052796;28;20036;-87
2022/09/28 10:29:11;;;;;;;12.02;9.32;;;;;;;-148.88;100.00;74806.44;5052884;28;20021;-87
2022/09/28 10:31:42;;;;;;;9.27;4.22;;;;;;;-148.88;100.00;74806.44;5051535;28;20017;-87
2022/09/28 10:34:12;;;;;;;9.68;4.78;;;;;;;-148.88;100.00;74798.31;5051550;28;20455;-87
2022/09/28 10:36:49;;;;;;;9.63;7.22;;;;;;;-148.88;100.00;74790.19;5051405;28;20049;-86
2022/09/28 10:39:37;;;;;;;10.18;7.80;;;;;;;-148.88;100.00;74802.38;5052628;28;20399;-87
2022/09/28 10:42:08;;;;;;;8.25;4.50;;;;;;;-148.88;100.00;74810.50;5051421;28;20020;-87
2022/09/28 10:44:48;;;;;;;7.93;5.07;;;;;;;-148.88;100.00;74800.34;5052811;28;20025;-87
2022/09/28 10:47:17;;;;;;;10.35;7.97;;;;;;;-148.88;100.00;74802.38;5051998;28;20075;-87
2022/09/28 10:49:45;;;;;;;11.88;9.85;;;;;;;-148.88;100.00;74786.13;5051756;28;20025;-87
2022/09/28 10:52:32;;;;;;;12.43;9.52;;;;;;;-148.88;100.00;74800.34;5052518;28;20025;-87
2022/09/28 10:54:57;;;;;;;10.60;8.70;;;;;;;-148.88;100.00;74790.19;5053654;28;20032;-87
2022/09/28 10:57:35;;;;;;;16.23;12.52;;;;;;;-148.88;100.00;74784.09;5052476;28;20332;-87
2022/09/28 11:00:05;;;;;;;9.90;8.48;;;;;;;-148.88;100.00;74804.41;5051635;28;20025;-87
2022/09/28 11:02:35;;;;;;;10.73;8.40;;;;;;;-148.88;100.00;74798.31;5068107;28;20021;-86
2022/09/28 11:05:05;;;;;;;9.57;7.57;;;;;;;-148.88;100.00;74800.34;5052472;28;20025;-86
2022/09/28 11:07:32;;;;;;;9.43;5.28;;;;;;;-148.88;100.00;74798.31;5052347;28;20416;-87
2022/09/28 11:10:00;;;;;;;8.68;7.30;;;;;;;-148.88;100.00;74788.16;5052593;28;20391;-86
2022/09/28 11:12:32;;;;;;;7.53;6.35;;;;;;;-148.88;100.00;74802.38;5051186;28;20421;-87
2022/09/28 11:15:01;;;;;;;9.77;6.78;;;;;;;-148.88;100.00;74790.19;5051815;28;20032;-86
2022/09/28 11:17:32;;;;;;;7.13;4.20;;;;;;;-148.88;100.00;74780.03;5050862;28;20044;-86
2022/09/28 11:20:00;;;;;;;9.00;7.25;;;;;;;-148.88;100.00;74769.88;5051305;28;20028;-87
2022/09/28 11:22:43;;;;;;;9.55;7.55;;;;;;;-148.88;100.00;74753.63;5053252;28;20021;-88
2022/09/28 11:25:15;;;;;;;8.85;4.22;;;;;;;-148.88;100.00;74769.88;5069034;28;20035;-87
2022/09/28 11:27:53;;;;;;;8.77;6.85;;;;;;;-148.88;100.00;74741.44;5055084;28;20033;-87
2022/09/28 11:30:32;;;;;;;9.65;6.43;;;;;;;-148.88;100.00;74749.56;5056107;28;20495;-86
2022/09/28 11:33:16;;;;;;;7.95;6.38;;;;;;;-148.88;100.00;74708.94;5056015;28;20033;-87